createdAt,value
2022-08-16T00:01:20.987Z,100587.34
2022-08-16T00:03:47.425Z,100587.69
2022-08-16T00:06:15.449Z,100591.00
2022-08-16T00:08:42.048Z,100594.81
2022-08-16T00:11:15.372Z,100597.09
2022-08-16T00:13:43.784Z,100591.31
2022-08-16T00:17:05.646Z,100598.59
2022-08-16T00:19:18.392Z,100593.44
2022-08-16T00:21:46.556Z,100601.03
2022-08-16T00:24:32.135Z,100601.22
2022-08-16T00:27:01.706Z,100602.59
2022-08-16T00:29:29.598Z,100606.41
2022-08-16T00:32:00.737Z,100618.31
2022-08-16T00:34:43.392Z,100610.78
2022-08-16T00:37:17.069Z,100614.31
2022-08-16T00:39:47.166Z,100614.16
2022-08-16T00:42:30.411Z,100614.84
2022-08-16T00:45:25.304Z,100619.31
2022-08-16T00:47:55.908Z,100614.66
2022-08-16T00:50:35.689Z,100613.13
2022-08-16T00:53:06.319Z,100608.28
2022-08-16T00:55:37.572Z,100611.28
2022-08-16T00:58:13.095Z,100611.28
2022-08-16T01:00:44.006Z,100613.06
2022-08-16T01:03:14.091Z,100612.38
2022-08-16T01:05:42.477Z,100614.16
2022-08-16T01:08:36.237Z,100611.31
2022-08-16T01:10:59.982Z,100612.53
2022-08-16T01:13:32.738Z,100612.13
2022-08-16T01:16:19.895Z,100611.59
2022-08-16T01:19:07.701Z,100616.59
2022-08-16T01:21:47.763Z,100609.47
2022-08-16T01:24:52.687Z,100613.69
2022-08-16T01:27:29.739Z,100615.38
2022-08-16T01:30:20.681Z,100616.34
2022-08-16T01:33:02.137Z,100605.09
2022-08-16T01:35:38.629Z,100619.31
2022-08-16T01:38:49.180Z,100611.69
2022-08-16T01:41:29.634Z,100612.31
2022-08-16T01:44:00.881Z,100609.44
2022-08-16T01:46:41.616Z,100613.22
2022-08-16T01:49:21.385Z,100612.84
2022-08-16T01:51:54.263Z,100605.56
2022-08-16T01:54:30.582Z,100608.00
2022-08-16T01:56:58.382Z,100609.03
2022-08-16T01:59:26.149Z,100609.84
2022-08-16T02:01:59.462Z,100605.03
2022-08-16T02:04:48.259Z,100607.00
2022-08-16T02:07:15.859Z,100612.06
2022-08-16T02:09:43.594Z,100602.84
2022-08-16T02:12:50.339Z,100609.78
2022-08-16T02:15:14.464Z,100602.16
2022-08-16T02:17:41.235Z,100606.78
2022-08-16T02:20:11.596Z,100611.72
2022-08-16T02:22:39.340Z,100604.97
2022-08-16T02:25:14.710Z,100608.59
2022-08-16T02:27:43.906Z,100620.72
2022-08-16T02:30:37.590Z,100609.47
2022-08-16T02:33:06.234Z,100614.06
2022-08-16T02:35:34.939Z,100611.09
2022-08-16T02:38:21.360Z,100610.06
2022-08-16T02:40:48.946Z,100616.16
2022-08-16T02:43:16.296Z,100610.34
2022-08-16T02:45:42.897Z,100617.44
2022-08-16T02:48:28.524Z,100617.44
2022-08-16T02:51:10.098Z,100617.44
2022-08-16T02:53:43.680Z,100609.50
2022-08-16T02:56:15.044Z,100614.44
2022-08-16T02:58:44.013Z,100611.16
2022-08-16T03:01:23.993Z,100613.59
2022-08-16T03:04:28.864Z,100613.59
2022-08-16T03:06:44.312Z,100615.91
2022-08-16T03:09:16.290Z,100610.78
2022-08-16T03:11:44.671Z,100608.44
2022-08-16T03:14:12.277Z,100607.91
2022-08-16T03:16:58.607Z,100607.50
2022-08-16T03:19:59.634Z,100611.66
2022-08-16T03:22:28.328Z,100609.47
2022-08-16T03:25:01.586Z,100602.00
2022-08-16T03:27:32.140Z,100604.75
2022-08-16T03:30:02.604Z,100600.59
2022-08-16T03:32:44.113Z,100600.72
2022-08-16T03:35:17.898Z,100602.88
2022-08-16T03:38:01.899Z,100601.03
2022-08-16T03:40:33.851Z,100608.84
2022-08-16T03:43:20.237Z,100601.72
2022-08-16T03:45:52.734Z,100610.94
2022-08-16T03:48:36.257Z,100604.66
2022-08-16T03:51:08.492Z,100607.59
2022-08-16T03:53:38.350Z,100606.22
2022-08-16T03:56:18.682Z,100610.97
2022-08-16T03:58:48.427Z,100609.88
2022-08-16T04:01:18.057Z,100607.63
2022-08-16T04:03:44.856Z,100608.50
2022-08-16T04:06:12.217Z,100616.69
2022-08-16T04:08:39.627Z,100620.47
2022-08-16T04:11:06.621Z,100621.44
2022-08-16T04:14:00.709Z,100624.25
2022-08-16T04:16:27.917Z,100622.72
2022-08-16T04:19:02.456Z,100620.91
2022-08-16T04:21:31.945Z,100627.16
2022-08-16T04:23:59.469Z,100623.44
2022-08-16T04:26:26.188Z,100631.66
2022-08-16T04:29:16.254Z,100636.78
2022-08-16T04:31:56.255Z,100627.22
2022-08-16T04:34:30.662Z,100630.13
2022-08-16T04:37:01.956Z,100634.47
2022-08-16T04:39:45.863Z,100631.94
2022-08-16T04:42:15.751Z,100637.22
2022-08-16T04:44:54.012Z,100638.63
2022-08-16T04:47:33.202Z,100647.94
2022-08-16T04:50:06.925Z,100648.63
2022-08-16T04:52:36.085Z,100652.53
2022-08-16T04:55:21.958Z,100664.66
2022-08-16T04:57:59.298Z,100659.06
2022-08-16T05:00:44.112Z,100666.19
2022-08-16T05:03:17.564Z,100657.81
2022-08-16T05:05:59.614Z,100659.25
2022-08-16T05:08:32.883Z,100665.06
2022-08-16T05:11:05.503Z,100662.00
2022-08-16T05:13:41.157Z,100667.13
2022-08-16T05:16:23.035Z,100661.31
2022-08-16T05:18:52.601Z,100670.50
2022-08-16T05:21:21.414Z,100666.44
2022-08-16T05:23:55.848Z,100661.84
2022-08-16T05:26:28.227Z,100669.19
2022-08-16T05:28:57.473Z,100665.00
2022-08-16T05:31:29.930Z,100666.91
2022-08-16T05:33:58.895Z,100669.41
2022-08-16T05:36:34.091Z,100669.41
2022-08-16T05:39:06.037Z,100670.25
2022-08-16T05:41:32.660Z,100665.66
2022-08-16T05:44:05.320Z,100671.75
2022-08-16T05:46:51.073Z,100676.47
2022-08-16T05:49:22.484Z,100680.53
2022-08-16T05:51:50.048Z,100676.09
2022-08-16T05:54:24.811Z,100680.53
2022-08-16T05:56:53.496Z,100685.66
2022-08-16T05:59:22.170Z,100683.03
2022-08-16T06:01:50.829Z,100684.69
2022-08-16T06:04:35.950Z,100680.25
2022-08-16T06:07:07.495Z,100692.88
2022-08-16T06:09:44.441Z,100694.63
2022-08-16T06:12:27.147Z,100682.47
2022-08-16T06:15:04.231Z,100683.59
2022-08-16T06:17:42.305Z,100692.31
2022-08-16T06:20:14.436Z,100688.97
2022-08-16T06:22:41.185Z,100686.38
2022-08-16T06:25:12.903Z,100691.25
2022-08-16T06:27:42.155Z,100680.59
2022-08-16T06:30:24.496Z,100701.38
2022-08-16T06:32:55.605Z,100700.63
2022-08-16T06:35:22.361Z,100692.69
2022-08-16T06:37:51.157Z,100693.22
2022-08-16T06:40:18.272Z,100699.75
2022-08-16T06:42:47.914Z,100698.97
2022-08-16T06:45:15.450Z,100696.41
2022-08-16T06:47:53.170Z,100696.97
2022-08-16T06:50:29.430Z,100687.06
2022-08-16T06:53:00.615Z,100692.44
2022-08-16T06:55:38.285Z,100692.94
2022-08-16T06:58:08.444Z,100692.88
2022-08-16T07:00:37.544Z,100703.31
2022-08-16T07:03:27.674Z,100708.66
2022-08-16T07:05:57.681Z,100704.50
2022-08-16T07:08:27.481Z,100701.91
2022-08-16T07:10:55.032Z,100695.69
2022-08-16T07:13:58.844Z,100698.03
2022-08-16T07:16:15.461Z,100711.03
2022-08-16T07:18:59.211Z,100705.44
2022-08-16T07:21:46.332Z,100717.41
2022-08-16T07:24:30.833Z,100714.34
2022-08-16T07:27:01.720Z,100716.03
2022-08-16T07:29:31.784Z,100715.41
2022-08-16T07:31:59.464Z,100722.75
2022-08-16T07:34:35.591Z,100717.91
2022-08-16T07:37:07.524Z,100718.59
2022-08-16T07:39:34.537Z,100717.19
2022-08-16T07:42:10.949Z,100721.22
2022-08-16T07:44:52.557Z,100718.94
2022-08-16T07:47:19.335Z,100720.97
2022-08-16T07:49:57.959Z,100730.63
2022-08-16T07:52:24.958Z,100728.50
2022-08-16T07:54:57.554Z,100736.09
2022-08-16T07:57:24.934Z,100738.59
2022-08-16T07:59:51.883Z,100747.41
2022-08-16T08:02:20.619Z,100747.78
2022-08-16T08:04:48.178Z,100756.09
2022-08-16T08:07:16.380Z,100759.09
2022-08-16T08:09:43.971Z,100755.94
2022-08-16T08:12:31.963Z,100761.44
2022-08-16T08:14:58.062Z,100759.78
2022-08-16T08:17:24.805Z,100764.09
2022-08-16T08:20:12.124Z,100750.84
2022-08-16T08:22:39.376Z,100752.50
2022-08-16T08:25:07.312Z,100762.47
2022-08-16T08:27:34.423Z,100759.66
2022-08-16T08:30:49.086Z,100758.16
2022-08-16T08:32:58.045Z,100753.00
2022-08-16T08:35:28.387Z,100756.31
2022-08-16T08:37:56.460Z,100761.28
2022-08-16T08:40:26.953Z,100768.22
2022-08-16T08:43:00.573Z,100771.06
2022-08-16T08:45:53.656Z,100784.69
2022-08-16T08:48:33.977Z,100780.03
2022-08-16T08:51:09.537Z,100777.69
2022-08-16T08:53:36.909Z,100777.22
2022-08-16T08:56:23.699Z,100777.03
2022-08-16T08:58:54.785Z,100778.34
2022-08-16T09:01:36.724Z,100780.47
2022-08-16T09:04:09.759Z,100779.47
2022-08-16T09:06:43.731Z,100781.22
2022-08-16T09:09:16.458Z,100783.56
2022-08-16T09:11:45.669Z,100783.84
2022-08-16T09:14:23.697Z,100781.97
2022-08-16T09:17:01.173Z,100782.81
2022-08-16T09:19:34.265Z,100791.13
2022-08-16T09:22:01.578Z,100788.31
2022-08-16T09:24:51.666Z,100799.09
2022-08-16T09:27:14.756Z,100800.59
2022-08-16T09:29:45.000Z,100797.69
2022-08-16T09:32:12.960Z,100799.66
2022-08-16T09:34:58.187Z,100795.75
2022-08-16T09:37:29.467Z,100797.59
2022-08-16T09:40:00.587Z,100797.91
2022-08-16T09:42:30.672Z,100807.13
2022-08-16T09:45:18.164Z,100803.88
2022-08-16T09:47:56.986Z,100806.50
2022-08-16T09:50:36.869Z,100808.19
2022-08-16T09:53:17.189Z,100805.72
2022-08-16T09:55:49.402Z,100812.22
2022-08-16T09:58:40.457Z,100816.31
2022-08-16T10:01:05.491Z,100810.81
2022-08-16T10:03:32.079Z,100815.72
2022-08-16T10:05:58.755Z,100811.38
2022-08-16T10:08:27.446Z,100814.19
2022-08-16T10:11:12.666Z,100820.09
2022-08-16T10:13:41.447Z,100813.25
2022-08-16T10:18:48.332Z,100816.44
2022-08-16T10:21:23.552Z,100815.22
2022-08-16T10:23:53.464Z,100814.75
2022-08-16T10:27:16.551Z,100805.47
2022-08-16T10:29:08.527Z,100807.69
2022-08-16T10:31:44.647Z,100809.53
2022-08-16T10:34:30.999Z,100815.88
2022-08-16T10:37:00.396Z,100814.19
2022-08-16T10:39:27.084Z,100808.66
2022-08-16T10:42:07.763Z,100815.53
2022-08-16T10:44:34.594Z,100812.94
2022-08-16T10:47:01.093Z,100804.63
2022-08-16T10:49:28.985Z,100813.28
2022-08-16T10:52:01.142Z,100817.72
2022-08-16T10:54:30.845Z,100824.53
2022-08-16T10:57:04.271Z,100823.63
2022-08-16T10:59:44.626Z,100822.78
2022-08-16T11:02:58.363Z,100822.88
2022-08-16T11:05:12.458Z,100824.44
2022-08-16T11:07:45.437Z,100829.41
2022-08-16T11:16:00.977Z,100841.03
2022-08-16T11:19:04.361Z,100844.03
2022-08-16T11:21:28.981Z,100842.31
2022-08-16T11:23:59.604Z,100845.41
2022-08-16T11:26:27.468Z,100848.81
2022-08-16T11:31:46.074Z,100852.13
2022-08-16T11:34:20.944Z,100859.72
2022-08-16T11:36:59.309Z,100863.50
2022-08-16T11:39:31.906Z,100859.22
2022-08-16T11:42:00.843Z,100859.69
2022-08-16T11:44:52.595Z,100857.28
2022-08-16T11:47:15.617Z,100861.63
2022-08-16T11:49:42.113Z,100868.66
2022-08-16T11:52:08.513Z,100875.22
2022-08-16T11:54:36.714Z,100873.66
2022-08-16T11:57:09.338Z,100872.63
2022-08-16T11:59:39.800Z,100871.72
2022-08-16T12:02:31.622Z,100872.75
2022-08-16T12:04:54.631Z,100870.81
2022-08-16T12:07:23.902Z,100877.31
2022-08-16T12:09:53.084Z,100872.81
2022-08-16T12:12:20.625Z,100876.72
2022-08-16T12:14:52.200Z,100869.59
2022-08-16T12:17:22.929Z,100865.81
2022-08-16T12:19:52.131Z,100872.28
2022-08-16T12:22:20.179Z,100874.00
2022-08-16T12:24:51.952Z,100874.72
2022-08-16T12:27:20.079Z,100874.31
2022-08-16T12:29:51.197Z,100881.22
2022-08-16T12:32:37.513Z,100881.72
2022-08-16T12:35:07.401Z,100875.34
2022-08-16T12:37:34.264Z,100880.69
2022-08-16T12:40:01.715Z,100872.53
2022-08-16T12:42:34.700Z,100883.88
2022-08-16T12:45:07.552Z,100879.94
2022-08-16T12:48:04.903Z,100890.59
2022-08-16T12:50:40.181Z,100898.94
2022-08-16T12:53:06.754Z,100895.53
2022-08-16T12:55:33.697Z,100899.59
2022-08-16T12:58:13.688Z,100902.72
2022-08-16T13:00:54.540Z,100906.59
2022-08-16T13:03:21.692Z,100904.50
2022-08-16T13:05:53.577Z,100903.28
2022-08-16T13:08:22.876Z,100907.22
2022-08-16T13:10:58.145Z,100909.19
2022-08-16T13:13:25.779Z,100919.31
2022-08-16T13:15:59.626Z,100911.34
2022-08-16T13:18:34.112Z,100919.31
2022-08-16T13:21:03.531Z,100917.91
2022-08-16T13:23:30.109Z,100916.69
2022-08-16T13:25:57.295Z,100905.34
2022-08-16T13:28:24.043Z,100912.75
2022-08-16T13:30:54.278Z,100903.19
2022-08-16T13:33:30.436Z,100904.25
2022-08-16T13:36:00.733Z,100903.56
2022-08-16T13:38:31.412Z,100894.41
2022-08-16T13:41:05.165Z,100898.69
2022-08-16T13:43:34.947Z,100897.72
2022-08-16T13:46:05.037Z,100898.47
2022-08-16T13:48:42.579Z,100902.59
2022-08-16T13:51:16.989Z,100904.16
2022-08-16T13:53:54.442Z,100898.69
2022-08-16T13:56:37.639Z,100908.09
2022-08-16T13:59:19.264Z,100903.66
2022-08-16T14:01:55.173Z,100904.00
2022-08-16T14:04:27.158Z,100903.22
2022-08-16T14:06:58.100Z,100902.78
2022-08-16T14:09:27.280Z,100903.41
2022-08-16T14:11:56.070Z,100911.16
2022-08-16T14:14:28.597Z,100909.38
2022-08-16T14:16:58.823Z,100906.16
2022-08-16T14:19:27.915Z,100906.13
2022-08-16T14:22:14.538Z,100913.06
2022-08-16T14:24:46.651Z,100914.84
2022-08-16T14:27:13.874Z,100914.94
2022-08-16T14:29:42.090Z,100919.63
2022-08-16T14:32:09.225Z,100912.03
2022-08-16T14:34:39.665Z,100919.81
2022-08-16T14:37:06.900Z,100923.91
2022-08-16T14:39:33.759Z,100915.63
2022-08-16T14:42:12.003Z,100921.69
2022-08-16T14:44:40.854Z,100919.06
2022-08-16T14:47:08.152Z,100921.09
2022-08-16T14:49:35.542Z,100922.09
2022-08-16T14:52:20.443Z,100916.38
2022-08-16T14:55:04.546Z,100922.75
2022-08-16T14:57:30.953Z,100922.56
2022-08-16T15:00:04.681Z,100918.38
2022-08-16T15:02:34.375Z,100911.97
2022-08-16T15:05:01.279Z,100912.25
2022-08-16T15:07:31.734Z,100904.28
2022-08-16T15:10:02.123Z,100916.63
2022-08-16T15:12:33.571Z,100917.06
2022-08-16T15:15:12.723Z,100915.78
2022-08-16T15:17:55.899Z,100916.25
2022-08-16T15:20:26.306Z,100911.78
2022-08-16T15:22:53.662Z,100916.19
2022-08-16T15:25:41.205Z,100928.66
2022-08-16T15:28:24.033Z,100931.56
2022-08-16T15:31:00.609Z,100931.50
2022-08-16T15:33:29.393Z,100925.06
2022-08-16T15:35:59.350Z,100930.28
2022-08-16T15:38:55.292Z,100937.13
2022-08-16T15:41:51.157Z,100934.13
2022-08-16T15:44:23.565Z,100937.47
2022-08-16T15:46:54.742Z,100935.97
2022-08-16T15:49:37.071Z,100939.81
2022-08-16T15:52:20.883Z,100936.44
2022-08-16T15:54:55.592Z,100938.66
2022-08-16T15:57:25.523Z,100932.38
2022-08-16T15:59:55.943Z,100945.50
2022-08-16T16:02:31.783Z,100942.13
2022-08-16T16:05:09.599Z,100941.88
2022-08-16T16:07:37.557Z,100938.91
2022-08-16T16:10:13.200Z,100944.53
2022-08-16T16:12:53.519Z,100945.66
2022-08-16T16:15:24.464Z,100944.38
2022-08-16T16:17:52.345Z,100951.53
2022-08-16T16:20:27.294Z,100945.13
2022-08-16T16:22:57.682Z,100949.84
2022-08-16T16:25:24.882Z,100952.22
2022-08-16T16:27:55.913Z,100952.22
2022-08-16T16:30:37.456Z,100945.06
2022-08-16T16:33:20.906Z,100949.56
2022-08-16T16:35:55.514Z,100958.03
2022-08-16T16:38:25.353Z,100952.94
2022-08-16T16:40:53.948Z,100950.25
2022-08-16T16:43:21.004Z,100956.91
2022-08-16T16:45:52.668Z,100955.25
2022-08-16T16:48:19.047Z,100954.25
2022-08-16T16:50:45.870Z,100954.72
2022-08-16T16:53:17.036Z,100955.63
2022-08-16T16:55:51.588Z,100958.94
2022-08-16T16:58:43.524Z,100957.78
2022-08-16T17:01:20.873Z,100958.44
2022-08-16T17:04:13.335Z,100954.28
2022-08-16T17:06:53.680Z,100954.47
2022-08-16T17:09:24.073Z,100956.50
2022-08-16T17:11:55.419Z,100955.94
2022-08-16T17:14:33.292Z,100953.09
2022-08-16T17:17:04.124Z,100957.97
2022-08-16T17:19:31.817Z,100957.91
2022-08-16T17:21:59.002Z,100955.41
2022-08-16T17:24:31.395Z,100952.28
2022-08-16T17:27:07.648Z,100953.88
2022-08-16T17:29:34.670Z,100957.94
2022-08-16T17:32:34.361Z,100956.63
2022-08-16T17:35:01.755Z,100952.84
2022-08-16T17:39:28.473Z,100955.53
2022-08-16T17:40:25.477Z,100955.34
2022-08-16T17:43:03.754Z,100959.84
2022-08-16T17:45:30.126Z,100957.25
2022-08-16T17:47:56.582Z,100959.94
2022-08-16T17:50:23.557Z,100960.50
2022-08-16T17:52:53.421Z,100955.88
2022-08-16T17:55:29.947Z,100958.81
2022-08-16T17:57:56.380Z,100959.91
2022-08-16T18:00:24.141Z,100960.63
2022-08-16T18:02:51.720Z,100968.66
2022-08-16T18:05:20.209Z,100970.03
2022-08-16T18:07:47.513Z,100960.13
2022-08-16T18:10:23.706Z,100961.06
2022-08-16T18:13:00.866Z,100970.28
2022-08-16T18:15:27.964Z,100973.84
2022-08-16T18:17:54.837Z,100975.09
2022-08-16T18:20:41.821Z,100973.66
2022-08-16T18:23:21.950Z,100982.66
2022-08-16T18:25:53.748Z,100983.56
2022-08-16T18:28:21.102Z,100983.91
2022-08-16T18:30:51.480Z,100986.75
2022-08-16T18:33:19.639Z,100985.91
2022-08-16T18:35:46.554Z,100981.28
2022-08-16T18:38:13.279Z,100983.94
2022-08-16T18:40:41.060Z,100985.28
2022-08-16T18:43:11.886Z,100978.69
2022-08-16T18:45:42.161Z,100987.16
2022-08-16T18:48:10.037Z,100990.03
2022-08-16T18:51:03.120Z,100986.22
2022-08-16T18:53:27.906Z,100988.25
2022-08-16T18:55:58.201Z,100993.94
2022-08-16T18:58:26.659Z,100983.78
2022-08-16T19:00:56.532Z,100993.25
2022-08-16T19:03:27.989Z,101003.03
2022-08-16T19:06:08.776Z,101006.06
2022-08-16T19:08:39.504Z,100998.44
2022-08-16T19:11:07.701Z,101001.31
2022-08-16T19:13:34.984Z,101008.34
2022-08-16T19:16:03.341Z,101020.81
2022-08-16T19:18:36.646Z,101015.81
2022-08-16T19:21:04.783Z,101010.19
2022-08-16T19:23:34.323Z,101012.22
2022-08-16T19:26:23.438Z,101030.19
2022-08-16T19:28:58.363Z,101029.31
2022-08-16T19:31:34.179Z,101040.34
2022-08-16T19:34:01.877Z,101037.16
2022-08-16T19:36:35.402Z,101044.69
2022-08-16T19:39:06.717Z,101045.13
2022-08-16T19:41:38.007Z,101041.31
2022-08-16T19:44:05.430Z,101048.81
2022-08-16T19:46:31.934Z,101052.13
2022-08-16T19:49:16.038Z,101048.81
2022-08-16T19:51:53.548Z,101054.28
2022-08-16T19:54:20.707Z,101056.13
2022-08-16T19:56:47.229Z,101062.78
2022-08-16T19:59:20.497Z,101064.28
2022-08-16T20:01:51.596Z,101069.13
2022-08-16T20:04:18.886Z,101067.78
2022-08-16T20:06:45.340Z,101073.94
2022-08-16T20:09:15.350Z,101077.94
2022-08-16T20:11:45.826Z,101085.09
2022-08-16T20:14:23.972Z,101087.09
2022-08-16T20:16:57.534Z,101086.41
2022-08-16T20:19:27.680Z,101085.41
2022-08-16T20:21:56.275Z,101079.09
2022-08-16T20:24:34.090Z,101087.25
2022-08-16T20:27:03.007Z,101092.72
2022-08-16T20:29:29.437Z,101090.72
2022-08-16T20:31:56.512Z,101091.38
2022-08-16T20:34:23.053Z,101095.38
2022-08-16T20:36:49.804Z,101096.72
2022-08-16T20:39:17.035Z,101083.75
2022-08-16T20:41:43.453Z,101091.88
2022-08-16T20:44:11.388Z,101092.06
2022-08-16T20:46:39.968Z,101086.72
2022-08-16T20:49:09.124Z,101082.53
2022-08-16T20:51:46.897Z,101084.38
2022-08-16T20:54:18.180Z,101082.88
2022-08-16T20:56:44.639Z,101086.88
2022-08-16T20:59:11.345Z,101088.38
2022-08-16T21:01:47.202Z,101092.38
2022-08-16T21:04:21.696Z,101088.72
2022-08-16T21:06:53.598Z,101100.34
2022-08-16T21:09:31.282Z,101098.34
2022-08-16T21:12:00.799Z,101097.03
2022-08-16T21:14:29.632Z,101101.97
2022-08-16T21:16:56.188Z,101097.63
2022-08-16T21:19:22.701Z,101096.78
2022-08-16T21:21:49.124Z,101103.94
2022-08-16T21:24:16.997Z,101101.94
2022-08-16T21:26:49.837Z,101107.25
2022-08-16T21:29:24.888Z,101101.41
2022-08-16T21:31:51.734Z,101106.34
2022-08-16T21:34:18.163Z,101122.47
2022-08-16T21:36:44.637Z,101124.44
2022-08-16T21:39:11.141Z,101113.13
2022-08-16T21:41:38.589Z,101112.31
2022-08-16T21:44:05.587Z,101123.81
2022-08-16T21:46:33.758Z,101116.94
2022-08-16T21:49:00.517Z,101120.47
2022-08-16T21:51:27.047Z,101122.94
2022-08-16T21:53:53.585Z,101121.94
2022-08-16T21:56:20.314Z,101114.25
2022-08-16T21:58:52.731Z,101112.75
2022-08-16T22:01:24.135Z,101102.59
2022-08-16T22:04:35.681Z,101110.22
2022-08-16T22:06:39.329Z,101113.53
2022-08-16T22:09:07.187Z,101108.88
2022-08-16T22:11:34.512Z,101108.41
2022-08-16T22:14:01.111Z,101117.19
2022-08-16T22:16:29.820Z,101115.69
2022-08-16T22:18:56.652Z,101110.53
2022-08-16T22:21:23.590Z,101107.72
2022-08-16T22:23:56.814Z,101106.53
2022-08-16T22:26:30.153Z,101107.16
2022-08-16T22:29:00.061Z,101107.16
2022-08-16T22:31:27.170Z,101107.16
2022-08-16T22:33:53.764Z,101121.91
2022-08-16T22:36:20.282Z,101113.84
2022-08-16T22:38:56.314Z,101121.44
2022-08-16T22:41:24.977Z,101114.00
2022-08-16T22:43:52.447Z,101112.19
2022-08-16T22:46:19.547Z,101109.84
2022-08-16T22:48:49.963Z,101108.16
2022-08-16T22:51:17.178Z,101102.84
2022-08-16T22:53:43.698Z,101102.34
2022-08-16T22:56:10.924Z,101102.81
2022-08-16T22:58:37.520Z,101094.63
2022-08-16T23:01:07.248Z,101093.63
2022-08-16T23:03:34.195Z,101099.94
2022-08-16T23:06:00.889Z,101094.13
2022-08-16T23:08:38.818Z,101100.56
2022-08-16T23:11:15.326Z,101096.72
2022-08-16T23:13:52.416Z,101090.84
2022-08-16T23:16:33.370Z,101094.19
2022-08-16T23:19:10.423Z,101090.03
2022-08-16T23:21:39.032Z,101090.50
2022-08-16T23:24:06.981Z,101088.66
2022-08-16T23:26:44.673Z,101088.66
2022-08-16T23:29:15.865Z,101080.41
2022-08-16T23:31:53.596Z,101081.09
2022-08-16T23:34:21.294Z,101076.25
2022-08-16T23:36:47.910Z,101072.09
2022-08-16T23:39:14.377Z,101070.72
2022-08-16T23:41:41.119Z,101077.56
2022-08-16T23:44:55.822Z,101078.38
2022-08-16T23:46:55.968Z,101071.56
2022-08-16T23:49:58.371Z,101075.50
2022-08-16T23:52:10.731Z,101073.53
2022-08-16T23:54:37.313Z,101077.31
2022-08-16T23:57:03.855Z,101087.03
2022-08-16T23:59:30.373Z,101081.63
